Time;durP1;ratioP1;P1;durP2;ratioP2;P2;SDS_P1;SDS_P2;PMS_P1;PMS_P2;Temp;Humidity;BMP_temperature;BMP_pressure;BME280_temperature;BME280_humidity;BME280_pressure;Samples;Min_cycle;Max_cycle;Signal;HPM_P1;HPM_P2
2022/12/12 00:02:05;;;;;;;7.90;5.13;;;-0.70;99.90;;;;;;5162519;28;20053;-60
2022/12/12 00:04:38;;;;;;;8.40;5.05;;;-0.70;99.90;;;;;;5158996;28;20373;-58
2022/12/12 00:07:10;;;;;;;8.23;4.60;;;-0.70;99.90;;;;;;5200036;28;20323;-58
2022/12/12 00:09:41;;;;;;;10.35;5.32;;;-0.70;99.90;;;;;;5175443;28;20053;-59
2022/12/12 00:12:18;;;;;;;9.40;5.70;;;-0.70;99.90;;;;;;5189273;28;20088;-59
2022/12/12 00:14:51;;;;;;;8.43;4.93;;;-0.70;99.90;;;;;;5192084;28;20042;-57
2022/12/12 00:17:28;;;;;;;7.72;5.40;;;-0.70;99.90;;;;;;5192348;28;20041;-58
2022/12/12 00:19:59;;;;;;;9.33;5.87;;;-0.70;99.90;;;;;;5192236;28;20036;-59
2022/12/12 00:22:35;;;;;;;9.35;6.00;;;-0.80;99.90;;;;;;5170755;28;20056;-60
2022/12/12 00:25:07;;;;;;;8.77;5.32;;;-0.80;99.90;;;;;;5173265;28;20068;-59
2022/12/12 00:27:43;;;;;;;9.68;5.63;;;-0.80;99.90;;;;;;5178021;28;20034;-61
2022/12/12 00:30:17;;;;;;;7.33;4.80;;;-0.80;99.90;;;;;;5160289;28;20048;-59
2022/12/12 00:32:51;;;;;;;10.30;5.35;;;-0.80;99.90;;;;;;5176405;28;20056;-60
2022/12/12 00:35:25;;;;;;;;;;;-0.80;99.90;;;;;;5160544;28;20040;-60
2022/12/12 00:37:56;;;;;;;8.27;4.65;;;-0.80;99.90;;;;;;5176061;28;19923;-58
2022/12/12 00:40:37;;;;;;;10.30;4.97;;;-0.80;99.90;;;;;;5177472;28;20315;-59
2022/12/12 00:43:09;;;;;;;9.13;5.70;;;-0.80;99.90;;;;;;5177063;28;20064;-59
2022/12/12 00:45:46;;;;;;;8.70;5.35;;;-0.80;99.90;;;;;;5139415;28;20080;-60
2022/12/12 00:48:19;;;;;;;7.68;5.47;;;-0.80;99.90;;;;;;5156180;28;20042;-57
2022/12/12 00:50:57;;;;;;;9.77;5.57;;;-0.80;99.90;;;;;;5152829;28;20045;-60
2022/12/12 00:53:33;;;;;;;9.10;4.68;;;-0.80;99.90;;;;;;5192989;28;20026;-59
2022/12/12 00:56:08;;;;;;;9.10;5.10;;;-0.70;99.90;;;;;;5189377;28;20056;-60
2022/12/12 00:58:48;;;;;;;9.45;5.63;;;-0.70;99.90;;;;;;5176008;28;20042;-63
2022/12/12 01:04:20;;;;;;;7.00;4.63;;;-0.60;99.90;;;;;;5062628;26;20061;-59
2022/12/12 01:06:53;;;;;;;6.80;4.00;;;-0.50;99.90;;;;;;5167472;28;20334;-59
2022/12/12 01:09:27;;;;;;;8.80;5.53;;;-0.60;99.90;;;;;;5131439;28;20043;-59
2022/12/12 01:12:07;;;;;;;7.65;4.70;;;-0.60;99.90;;;;;;5133884;29;20038;-58
2022/12/12 01:14:42;;;;;;;7.85;4.93;;;-0.80;99.90;;;;;;5151166;28;20039;-59
2022/12/12 01:17:16;;;;;;;7.00;5.13;;;-0.80;99.90;;;;;;5156725;28;20049;-60
2022/12/12 01:19:47;;;;;;;12.60;4.95;;;-0.90;99.90;;;;;;5143532;28;20204;-59
2022/12/12 01:22:30;;;;;;;8.43;4.43;;;-1.00;99.90;;;;;;5152774;28;20052;-59
2022/12/12 01:25:14;;;;;;;8.30;4.20;;;-1.10;99.90;;;;;;5172487;28;20029;-59
2022/12/12 01:27:52;;;;;;;7.40;4.18;;;-1.20;99.90;;;;;;5157119;28;20034;-58
2022/12/12 01:30:25;;;;;;;8.73;5.13;;;-1.20;99.90;;;;;;5155842;28;20042;-58
2022/12/12 01:33:08;;;;;;;7.10;5.07;;;-1.30;99.90;;;;;;5155716;28;20044;-58
2022/12/12 01:35:45;;;;;;;7.20;4.47;;;-1.30;99.90;;;;;;5147391;28;20226;-58
2022/12/12 01:38:16;;;;;;;7.47;4.05;;;-1.40;99.90;;;;;;5156385;28;20046;-62
2022/12/12 01:40:50;;;;;;;5.47;4.03;;;-1.40;99.90;;;;;;5174401;28;20046;-58
2022/12/12 01:43:24;;;;;;;7.57;4.55;;;-1.50;99.90;;;;;;5141025;28;20064;-59
2022/12/12 01:46:01;;;;;;;8.68;4.75;;;-1.50;99.90;;;;;;5156916;28;20038;-58
2022/12/12 01:48:47;;;;;;;9.87;5.93;;;-1.50;99.90;;;;;;5175587;28;20253;-59
2022/12/12 01:51:29;;;;;;;6.40;3.75;;;-1.60;99.90;;;;;;5158026;28;20022;-59
2022/12/12 01:54:09;;;;;;;10.63;5.30;;;-1.70;99.90;;;;;;5157718;28;20331;-59
2022/12/12 01:56:46;;;;;;;8.03;4.23;;;-1.70;99.90;;;;;;5157552;28;20054;-59
2022/12/12 01:59:32;;;;;;;5.80;3.53;;;-1.70;99.90;;;;;;5138220;28;20050;-59
2022/12/12 02:02:07;;;;;;;7.97;4.90;;;-1.80;99.90;;;;;;5145518;28;20042;-59
2022/12/12 02:04:47;;;;;;;6.60;4.28;;;-1.70;99.90;;;;;;5163364;28;20069;-58
2022/12/12 02:07:23;;;;;;;7.75;4.22;;;-1.70;99.90;;;;;;5156784;28;20034;-59
2022/12/12 02:10:03;;;;;;;7.50;4.38;;;-1.70;99.90;;;;;;5141133;28;20038;-58
2022/12/12 02:12:36;;;;;;;5.93;3.60;;;-1.70;99.90;;;;;;5176578;28;20036;-59
2022/12/12 02:15:11;;;;;;;5.53;3.58;;;-1.70;99.90;;;;;;5143632;28;20050;-58
2022/12/12 02:18:10;;;;;;;8.77;4.35;;;-1.60;99.90;;;;;;5163442;28;20034;-60
2022/12/12 02:21:33;;;;;;;7.78;3.63;;;-1.60;99.90;;;;;;5161559;28;20456;-59
2022/12/12 02:24:39;;;;;;;6.40;4.83;;;-1.50;99.90;;;;;;5095824;29;20120;-57
2022/12/12 02:27:39;;;;;;;7.67;4.43;;;-1.50;99.90;;;;;;5133545;28;20049;-59
2022/12/12 02:30:56;;;;;;;5.33;3.73;;;-1.50;99.90;;;;;;5143407;28;20065;-59
2022/12/12 02:34:10;;;;;;;5.80;4.03;;;-1.50;99.90;;;;;;5150037;28;20056;-58
2022/12/12 02:37:23;;;;;;;5.95;4.18;;;-1.50;99.90;;;;;;5176162;28;20222;-59
2022/12/12 02:40:02;;;;;;;7.87;4.50;;;-1.70;99.90;;;;;;5175734;28;20030;-59
2022/12/12 02:42:58;;;;;;;5.40;3.80;;;-1.70;99.90;;;;;;5159161;28;20048;-59
2022/12/12 02:46:03;;;;;;;6.30;4.03;;;-1.70;99.90;;;;;;5143417;28;20042;-58
2022/12/12 02:48:47;;;;;;;;;;;-1.60;99.90;;;;;;5160310;28;20325;-58
2022/12/12 02:51:24;;;;;;;4.50;3.63;;;-1.60;99.90;;;;;;5140705;28;19913;-58
2022/12/12 02:54:05;;;;;;;5.75;3.08;;;-1.60;99.90;;;;;;5159112;28;20042;-58
2022/12/12 02:56:51;;;;;;;5.47;3.38;;;-1.60;99.90;;;;;;5159345;28;20245;-59
2022/12/12 02:59:40;;;;;;;6.90;4.47;;;-1.60;99.90;;;;;;5143411;28;20322;-58
2022/12/12 03:02:32;;;;;;;5.33;3.87;;;-1.60;99.90;;;;;;5157801;28;20053;-58
2022/12/12 03:08:50;;;;;;;6.23;3.20;;;-1.70;99.90;;;;;;5125743;28;20215;-58
2022/12/12 03:12:00;;;;;;;6.63;2.72;;;-1.70;99.90;;;;;;5157739;28;20060;-61
2022/12/12 03:15:19;;;;;;;4.47;3.40;;;-1.80;99.90;;;;;;5139093;28;20364;-59
2022/12/12 03:18:25;;;;;;;6.05;3.65;;;-1.90;99.90;;;;;;5106275;28;20550;-58
2022/12/12 03:21:18;;;;;;;5.30;3.17;;;-1.90;99.90;;;;;;5138333;28;20035;-58
2022/12/12 03:24:06;;;;;;;7.77;3.63;;;-1.80;99.90;;;;;;5138116;28;20042;-58
2022/12/12 03:26:57;;;;;;;4.23;3.43;;;-1.80;99.90;;;;;;5154422;28;20326;-58
2022/12/12 03:29:37;;;;;;;5.30;3.97;;;-1.80;99.90;;;;;;5141970;28;20044;-59
2022/12/12 03:32:25;;;;;;;4.90;3.60;;;-1.80;99.90;;;;;;5157827;28;20049;-60
2022/12/12 03:35:06;;;;;;;5.70;3.40;;;-1.80;99.90;;;;;;5160170;28;20038;-58
2022/12/12 03:37:54;;;;;;;6.88;3.88;;;-1.90;99.90;;;;;;5137239;28;20196;-59
2022/12/12 03:40:54;;;;;;;3.63;2.97;;;-1.90;99.90;;;;;;5143313;28;20455;-60
2022/12/12 03:43:56;;;;;;;4.77;3.60;;;-1.90;99.90;;;;;;5155346;28;20072;-58
2022/12/12 03:46:42;;;;;;;5.37;3.67;;;-1.90;99.90;;;;;;5141737;28;20044;-58
2022/12/12 03:49:44;;;;;;;7.78;3.97;;;-1.90;99.90;;;;;;5141737;28;20336;-58
2022/12/12 03:52:35;;;;;;;5.55;2.90;;;-1.80;99.90;;;;;;5142452;28;20048;-59
2022/12/12 03:55:24;;;;;;;7.07;3.93;;;-1.70;99.90;;;;;;5175122;28;20050;-61
2022/12/12 03:58:18;;;;;;;9.23;4.67;;;-1.70;99.90;;;;;;5160962;28;20045;-58
2022/12/12 04:00:54;;;;;;;5.95;3.55;;;-1.60;99.90;;;;;;5162615;28;20060;-58
2022/12/12 04:03:48;;;;;;;54.33;29.48;;;-1.60;99.90;;;;;;5115603;29;20051;-59
2022/12/12 04:06:53;;;;;;;12.82;7.53;;;-1.50;99.90;;;;;;5089244;28;20050;-58
2022/12/12 04:13:04;;;;;;;7.13;5.25;;;-1.50;99.90;;;;;;5137768;28;20064;-59
2022/12/12 04:15:58;;;;;;;5.27;3.93;;;-1.50;99.90;;;;;;5153470;28;20041;-59
2022/12/12 04:18:51;;;;;;;6.45;4.78;;;-1.50;99.90;;;;;;5173508;28;20044;-58
2022/12/12 04:24:58;;;;;;;6.32;4.32;;;-1.50;99.90;;;;;;5149458;28;20060;-58
2022/12/12 04:27:49;;;;;;;6.20;4.15;;;-1.50;99.90;;;;;;5137558;28;20042;-58
2022/12/12 04:30:21;;;;;;;11.20;5.50;;;-1.40;99.90;;;;;;5105488;28;20051;-59
2022/12/12 04:33:14;;;;;;;9.68;5.65;;;-1.40;99.90;;;;;;5152577;28;20346;-59
2022/12/12 04:35:50;;;;;;;8.90;4.80;;;-1.50;99.90;;;;;;5177205;28;20037;-59
2022/12/12 04:38:23;;;;;;;10.57;5.07;;;-1.50;99.90;;;;;;5159016;28;20352;-59
2022/12/12 04:41:00;;;;;;;59.78;27.70;;;-1.60;99.90;;;;;;5174952;28;20036;-59
2022/12/12 04:43:37;;;;;;;4.87;3.87;;;-1.70;99.90;;;;;;5173782;28;20048;-59
2022/12/12 04:46:24;;;;;;;8.13;5.50;;;-1.80;99.90;;;;;;5154515;28;20034;-59
2022/12/12 04:49:10;;;;;;;7.63;4.77;;;-1.90;99.90;;;;;;5136648;28;20333;-59
2022/12/12 04:51:57;;;;;;;8.33;4.60;;;-1.90;99.90;;;;;;5137871;28;20311;-59
2022/12/12 04:55:04;;;;;;;9.03;5.40;;;-1.80;99.90;;;;;;5144221;28;20038;-59
2022/12/12 04:57:53;;;;;;;14.73;7.17;;;-1.80;99.90;;;;;;5155715;28;20039;-59
2022/12/12 05:00:40;;;;;;;13.27;5.17;;;-1.80;99.90;;;;;;5157137;28;20038;-59
2022/12/12 05:03:31;;;;;;;10.63;5.27;;;-1.80;99.90;;;;;;5154047;28;20046;-60
2022/12/12 05:06:12;;;;;;;11.10;5.90;;;-1.80;99.90;;;;;;5139795;28;20055;-60
2022/12/12 05:08:52;;;;;;;12.82;7.03;;;-1.80;99.90;;;;;;5157182;28;20022;-59
2022/12/12 05:11:26;;;;;;;22.70;9.37;;;-1.80;99.90;;;;;;5156128;28;20032;-59
2022/12/12 05:14:00;;;;;;;;;;;-1.80;99.90;;;;;;5140699;28;20046;-59
2022/12/12 05:16:46;;;;;;;24.87;12.10;;;-1.90;99.90;;;;;;5185513;28;19922;-59
2022/12/12 05:19:21;;;;;;;32.23;19.07;;;-1.90;99.90;;;;;;5193722;28;20048;-59
2022/12/12 05:21:52;;;;;;;11.82;6.68;;;-1.90;99.90;;;;;;5193249;28;20034;-61
2022/12/12 05:24:30;;;;;;;3.90;3.23;;;-1.90;99.90;;;;;;5177263;28;20048;-59
2022/12/12 05:27:01;;;;;;;8.40;5.67;;;-1.90;99.90;;;;;;5144238;28;20065;-58
2022/12/12 05:29:34;;;;;;;6.37;4.90;;;-1.90;99.90;;;;;;5144843;28;20048;-59
2022/12/12 05:32:08;;;;;;;6.10;4.23;;;-1.90;99.90;;;;;;5155718;28;20348;-60
2022/12/12 05:34:42;;;;;;;6.55;3.60;;;-1.90;99.90;;;;;;5157194;28;20030;-59
2022/12/12 05:37:16;;;;;;;7.80;4.97;;;-1.80;99.90;;;;;;5171801;28;20030;-58
2022/12/12 05:39:50;;;;;;;71.38;28.05;;;-1.80;99.90;;;;;;5177445;28;20184;-58
2022/12/12 05:42:27;;;;;;;262.60;152.30;;;-1.80;99.90;;;;;;5174390;28;20310;-59
2022/12/12 05:45:00;;;;;;;28.13;19.50;;;-1.80;99.90;;;;;;5172469;28;20048;-59
2022/12/12 05:47:32;;;;;;;78.47;47.77;;;-1.80;99.90;;;;;;5135921;28;20047;-59
2022/12/12 05:50:09;;;;;;;27.55;18.90;;;-1.80;99.90;;;;;;5122573;28;20052;-59
2022/12/12 05:52:40;;;;;;;14.73;7.63;;;-1.80;99.90;;;;;;5140376;28;20231;-59
2022/12/12 05:55:13;;;;;;;7.82;4.32;;;-1.80;99.90;;;;;;5140895;28;20053;-59
2022/12/12 05:57:58;;;;;;;13.52;4.70;;;-1.80;99.90;;;;;;5128556;28;20039;-59
2022/12/12 06:00:35;;;;;;;12.80;7.43;;;-1.80;99.90;;;;;;5140226;28;20033;-58
2022/12/12 06:03:09;;;;;;;9.50;5.37;;;-1.80;99.90;;;;;;5152844;28;20038;-59
2022/12/12 06:05:44;;;;;;;11.03;6.40;;;-1.90;99.90;;;;;;5139710;28;20247;-60
2022/12/12 06:08:19;;;;;;;12.47;6.17;;;-1.80;99.90;;;;;;5172384;28;20219;-59
2022/12/12 06:10:52;;;;;;;29.87;16.33;;;-1.80;99.90;;;;;;5154192;28;20169;-60
2022/12/12 06:13:24;;;;;;;18.23;9.45;;;-1.70;99.90;;;;;;5154202;28;20033;-60
2022/12/12 06:16:03;;;;;;;12.43;6.18;;;-1.70;99.90;;;;;;5155465;28;20046;-59
2022/12/12 06:18:38;;;;;;;39.80;21.73;;;-1.70;99.90;;;;;;5108781;28;20349;-59
2022/12/12 06:21:19;;;;;;;36.90;20.90;;;-1.60;99.90;;;;;;5173472;28;20040;-59
2022/12/12 06:23:56;;;;;;;7.47;4.45;;;-1.60;99.90;;;;;;5155522;28;20060;-61
2022/12/12 06:26:35;;;;;;;6.73;4.77;;;-1.50;99.90;;;;;;5151470;28;20080;-58
2022/12/12 06:29:14;;;;;;;13.70;8.53;;;-1.50;99.90;;;;;;5151598;28;20043;-59
2022/12/12 06:31:54;;;;;;;22.20;15.43;;;-1.50;99.90;;;;;;5157373;28;20046;-60
2022/12/12 06:34:26;;;;;;;10.68;6.30;;;-1.50;99.90;;;;;;5108843;28;20470;-59
2022/12/12 06:36:58;;;;;;;9.70;5.30;;;-1.50;99.90;;;;;;5134404;28;20041;-60
2022/12/12 06:39:37;;;;;;;24.57;13.13;;;-1.50;99.90;;;;;;5135881;28;20048;-59
2022/12/12 06:42:12;;;;;;;8.43;5.35;;;-1.50;99.90;;;;;;5173639;28;20026;-60
2022/12/12 06:44:55;;;;;;;10.30;4.67;;;-1.60;99.90;;;;;;5154091;28;20057;-60
2022/12/12 06:47:34;;;;;;;11.93;6.70;;;-1.70;99.90;;;;;;5156233;28;20038;-60
2022/12/12 06:50:10;;;;;;;10.03;6.77;;;-1.80;99.90;;;;;;5156014;28;20050;-61
2022/12/12 06:52:47;;;;;;;7.50;5.57;;;-1.80;99.90;;;;;;5138936;28;20054;-60
2022/12/12 06:55:20;;;;;;;19.67;7.43;;;-1.80;99.90;;;;;;5158664;28;20338;-59
2022/12/12 06:57:57;;;;;;;17.20;9.65;;;-1.80;99.90;;;;;;5156036;28;20065;-60
2022/12/12 07:00:34;;;;;;;10.00;5.73;;;-1.80;99.90;;;;;;5154687;28;20039;-59
2022/12/12 07:03:06;;;;;;;6.77;4.40;;;-1.80;99.90;;;;;;5156834;28;20053;-58
2022/12/12 07:05:40;;;;;;;11.20;6.70;;;-1.80;99.90;;;;;;5137202;28;20059;-59
2022/12/12 07:08:18;;;;;;;9.70;4.50;;;-1.70;99.90;;;;;;5137499;28;20043;-58
2022/12/12 07:10:51;;;;;;;9.83;5.60;;;-1.80;99.90;;;;;;5139150;28;20046;-59
2022/12/12 07:13:23;;;;;;;13.00;6.28;;;-1.80;99.90;;;;;;5123444;28;20056;-60
2022/12/12 07:15:57;;;;;;;6.73;4.80;;;-1.80;99.90;;;;;;5141382;28;20044;-59
2022/12/12 07:18:28;;;;;;;6.60;4.13;;;-1.80;99.90;;;;;;5175078;28;20032;-59
2022/12/12 07:21:10;;;;;;;9.87;4.40;;;-1.80;99.90;;;;;;5158821;28;20038;-58
2022/12/12 07:23:44;;;;;;;10.47;5.00;;;-1.90;99.90;;;;;;5158866;28;20045;-60
2022/12/12 07:26:23;;;;;;;7.07;5.77;;;-1.90;99.90;;;;;;5173643;28;20056;-58
2022/12/12 07:29:02;;;;;;;10.90;6.17;;;-1.90;99.90;;;;;;5150120;28;20037;-60
2022/12/12 07:31:33;;;;;;;6.40;3.90;;;-1.80;99.90;;;;;;5171695;28;20038;-60
2022/12/12 07:34:07;;;;;;;8.97;5.40;;;-1.90;99.90;;;;;;5141265;28;20056;-59
2022/12/12 07:36:42;;;;;;;5.40;4.50;;;-1.80;99.90;;;;;;5154319;28;20041;-59
2022/12/12 07:39:13;;;;;;;;;;;-1.90;99.90;;;;;;5151004;28;20037;-58
2022/12/12 07:41:53;;;;;;;10.10;5.23;;;-1.90;99.90;;;;;;5162178;28;19920;-58
2022/12/12 07:44:26;;;;;;;8.33;4.60;;;-1.80;99.90;;;;;;5170484;28;20046;-58
2022/12/12 07:46:58;;;;;;;6.70;4.63;;;-1.80;99.90;;;;;;5150628;28;20072;-60
2022/12/12 07:49:40;;;;;;;7.27;5.17;;;-1.80;99.90;;;;;;5149573;28;20045;-59
2022/12/12 07:52:14;;;;;;;8.07;5.23;;;-1.80;99.90;;;;;;5157857;28;20034;-58
2022/12/12 07:54:46;;;;;;;8.18;5.65;;;-1.70;99.90;;;;;;5173886;28;20042;-58
2022/12/12 07:57:19;;;;;;;37.93;22.97;;;-1.80;99.90;;;;;;5155168;28;20045;-58
2022/12/12 07:59:56;;;;;;;56.33;38.63;;;-1.70;99.90;;;;;;5140332;28;20224;-58
2022/12/12 08:02:30;;;;;;;26.55;17.35;;;-1.60;99.90;;;;;;5150059;28;20034;-58
2022/12/12 08:05:03;;;;;;;29.27;21.90;;;-1.50;99.90;;;;;;5138459;28;20045;-58
2022/12/12 08:07:36;;;;;;;9.50;6.13;;;-1.50;99.90;;;;;;5106932;28;20042;-58
2022/12/12 08:10:11;;;;;;;14.43;7.40;;;-1.50;99.90;;;;;;5153544;28;20046;-59
2022/12/12 08:12:43;;;;;;;9.27;5.80;;;-1.60;99.90;;;;;;5154160;28;20062;-58
2022/12/12 08:15:19;;;;;;;11.10;6.07;;;-1.50;99.90;;;;;;5133991;28;20045;-58
2022/12/12 08:17:52;;;;;;;6.90;4.80;;;-1.40;99.90;;;;;;5141822;28;20042;-61
2022/12/12 08:20:25;;;;;;;8.77;5.18;;;-1.40;99.90;;;;;;5140375;28;20046;-59
2022/12/12 08:23:00;;;;;;;9.05;5.35;;;-1.30;99.90;;;;;;5156937;28;20329;-59
2022/12/12 08:25:37;;;;;;;7.67;5.00;;;-1.20;99.90;;;;;;5155145;28;20243;-59
2022/12/12 08:28:19;;;;;;;8.57;5.60;;;-1.20;99.90;;;;;;5172394;28;20239;-60
2022/12/12 08:30:53;;;;;;;10.98;5.45;;;-1.20;99.90;;;;;;5134776;28;20058;-60
2022/12/12 08:33:27;;;;;;;;;;;-1.20;99.90;;;;;;5139811;28;20550;-59
2022/12/12 08:36:10;;;;;;;7.53;4.60;;;-1.20;99.90;;;;;;5140133;28;20094;-60
2022/12/12 08:38:42;;;;;;;6.18;4.88;;;-1.20;99.90;;;;;;5125734;28;20046;-60
2022/12/12 08:41:17;;;;;;;11.35;7.95;;;-1.10;99.90;;;;;;5173101;28;20038;-61
2022/12/12 08:43:51;;;;;;;11.32;6.40;;;-1.20;99.90;;;;;;5154445;28;20034;-60
2022/12/12 08:46:29;;;;;;;14.27;8.25;;;-1.00;99.90;;;;;;5135798;28;20042;-60
2022/12/12 08:49:03;;;;;;;12.68;7.57;;;-0.90;99.90;;;;;;5169125;28;20239;-59
2022/12/12 08:51:47;;;;;;;10.35;5.43;;;-0.70;99.90;;;;;;5139723;28;20042;-59
2022/12/12 08:54:21;;;;;;;13.70;7.97;;;-0.60;99.90;;;;;;5171187;28;20031;-60
2022/12/12 08:56:55;;;;;;;;;;;-0.60;99.90;;;;;;5154224;28;20054;-60
2022/12/12 08:59:35;;;;;;;12.95;7.97;;;-0.70;99.90;;;;;;5140819;28;19909;-59
2022/12/12 09:02:11;;;;;;;12.73;6.65;;;-0.60;99.90;;;;;;5132919;28;20046;-58
2022/12/12 09:04:43;;;;;;;9.30;5.10;;;-0.50;99.90;;;;;;5156953;28;20057;-59
2022/12/12 09:07:21;;;;;;;7.50;4.28;;;-0.60;99.90;;;;;;5139194;28;20059;-58
2022/12/12 09:09:55;;;;;;;8.05;4.25;;;-0.70;99.90;;;;;;5155985;28;20042;-59
2022/12/12 09:12:34;;;;;;;;;;;-0.80;99.90;;;;;;5138340;28;20056;-57
2022/12/12 09:15:06;;;;;;;8.38;4.85;;;-0.80;99.90;;;;;;5156654;28;19926;-59
2022/12/12 09:17:45;;;;;;;11.20;7.47;;;-0.70;99.90;;;;;;5156117;28;20034;-59
2022/12/12 09:20:16;;;;;;;6.93;4.28;;;-0.60;99.90;;;;;;5138944;28;20051;-59
2022/12/12 09:22:51;;;;;;;13.38;7.88;;;-0.70;99.90;;;;;;5149668;28;20039;-61
2022/12/12 09:25:32;;;;;;;8.85;5.63;;;-0.70;99.90;;;;;;5140523;28;20048;-60
2022/12/12 09:28:03;;;;;;;13.95;7.20;;;-0.50;99.90;;;;;;5153058;28;20034;-58
2022/12/12 09:30:38;;;;;;;11.35;5.70;;;-0.40;99.90;;;;;;5123635;28;20046;-58
2022/12/12 09:33:14;;;;;;;10.40;7.60;;;-0.40;99.90;;;;;;5154607;28;20030;-58
2022/12/12 09:36:02;;;;;;;14.25;7.75;;;-0.50;99.90;;;;;;5155457;28;20064;-59
2022/12/12 09:38:37;;;;;;;7.40;5.95;;;-0.30;99.90;;;;;;5127228;28;20046;-60
2022/12/12 09:41:08;;;;;;;7.80;6.30;;;-0.40;99.90;;;;;;5136171;28;20045;-59
2022/12/12 09:43:57;;;;;;;10.23;6.72;;;-0.40;99.90;;;;;;5170322;28;20061;-58
2022/12/12 09:46:43;;;;;;;11.32;8.18;;;-0.40;99.90;;;;;;5143688;28;20226;-58
2022/12/12 09:49:47;;;;;;;11.48;6.65;;;-0.30;99.90;;;;;;5152381;28;20065;-59
2022/12/12 09:52:39;;;;;;;11.00;5.07;;;-0.10;99.90;;;;;;5144639;28;20046;-59
2022/12/12 09:55:19;;;;;;;5.95;3.38;;;-0.10;99.90;;;;;;5166764;28;20057;-60
2022/12/12 09:58:25;;;;;;;7.05;4.85;;;0.20;99.90;;;;;;5170317;28;20044;-59
2022/12/12 10:01:29;;;;;;;14.00;5.20;;;0.30;99.90;;;;;;5169384;28;20352;-60
2022/12/12 10:04:23;;;;;;;7.50;5.32;;;0.40;99.90;;;;;;5186964;28;20303;-59
2022/12/12 10:07:20;;;;;;;6.40;4.50;;;0.20;99.90;;;;;;5127457;28;20046;-60
2022/12/12 10:10:22;;;;;;;7.68;5.03;;;0.30;99.90;;;;;;5157184;28;20216;-59
2022/12/12 10:12:57;;;;;;;8.70;4.72;;;0.50;99.90;;;;;;5171017;28;20327;-61
2022/12/12 10:15:45;;;;;;;7.03;4.95;;;0.80;99.90;;;;;;5155536;28;20044;-60
2022/12/12 10:18:30;;;;;;;7.78;4.93;;;1.00;99.90;;;;;;5171181;28;20025;-61
2022/12/12 10:21:16;;;;;;;17.17;6.22;;;1.30;99.90;;;;;;5154454;28;20042;-61
2022/12/12 10:24:02;;;;;;;8.15;4.97;;;1.50;99.90;;;;;;5168765;28;20047;-61
2022/12/12 10:26:38;;;;;;;12.02;5.78;;;1.90;99.90;;;;;;5151609;28;20038;-62
2022/12/12 10:29:22;;;;;;;5.55;3.70;;;2.00;99.90;;;;;;5137905;28;20046;-62
2022/12/12 10:32:30;;;;;;;5.30;4.20;;;1.90;99.90;;;;;;5143288;28;20068;-62
2022/12/12 10:35:53;;;;;;;6.30;3.80;;;1.80;99.90;;;;;;5157978;28;20042;-61
2022/12/12 10:38:52;;;;;;;11.90;7.70;;;1.40;99.90;;;;;;5173116;28;20054;-62
2022/12/12 10:41:37;;;;;;;34.63;22.90;;;1.30;99.90;;;;;;5159012;28;20212;-61
2022/12/12 10:44:32;;;;;;;24.95;16.33;;;1.30;99.90;;;;;;5158303;28;20246;-60
2022/12/12 10:47:08;;;;;;;29.80;18.33;;;1.40;99.90;;;;;;5169028;28;20032;-61
2022/12/12 10:49:42;;;;;;;18.00;11.85;;;1.60;99.90;;;;;;5158217;28;20276;-60
2022/12/12 10:52:24;;;;;;;14.60;8.75;;;1.50;99.90;;;;;;5138628;28;20049;-60
2022/12/12 10:55:00;;;;;;;7.80;5.40;;;1.70;99.90;;;;;;5155442;28;20477;-64
2022/12/12 10:57:35;;;;;;;7.45;4.53;;;2.00;99.90;;;;;;5174250;28;20038;-60
2022/12/12 11:00:37;;;;;;;9.50;3.88;;;2.00;99.90;;;;;;5156311;28;20762;-61
2022/12/12 11:03:53;;;;;;;11.05;4.82;;;1.70;99.90;;;;;;5144531;28;20052;-60
2022/12/12 11:06:35;;;;;;;6.53;3.50;;;2.00;99.90;;;;;;5140974;28;20056;-61
2022/12/12 11:09:16;;;;;;;5.75;3.80;;;2.30;99.90;;;;;;5158224;28;20071;-60
2022/12/12 11:12:09;;;;;;;5.90;3.72;;;2.90;99.90;;;;;;5138423;28;20039;-61
2022/12/12 11:14:52;;;;;;;7.10;3.72;;;2.20;99.90;;;;;;5175130;28;20054;-61
2022/12/12 11:17:35;;;;;;;6.20;3.80;;;1.90;99.90;;;;;;5169468;28;20038;-61
2022/12/12 11:20:16;;;;;;;6.63;3.75;;;1.80;99.90;;;;;;5157056;28;20042;-62
2022/12/12 11:22:52;;;;;;;8.82;4.10;;;2.00;99.90;;;;;;5158224;28;20038;-61
2022/12/12 11:25:32;;;;;;;7.57;4.70;;;1.90;99.90;;;;;;5142288;28;20045;-61
2022/12/12 11:28:15;;;;;;;7.03;5.65;;;1.80;99.90;;;;;;5144516;28;20110;-61
2022/12/12 11:30:55;;;;;;;6.82;4.30;;;1.70;99.90;;;;;;5138348;28;20312;-61
2022/12/12 11:33:42;;;;;;;6.10;3.70;;;1.70;99.90;;;;;;5156122;28;20046;-61
2022/12/12 11:36:35;;;;;;;8.57;4.35;;;1.50;99.90;;;;;;5155017;28;20026;-62
2022/12/12 11:39:36;;;;;;;6.55;4.07;;;1.60;99.90;;;;;;5172258;28;20044;-62
2022/12/12 11:42:14;;;;;;;6.63;3.88;;;1.80;99.90;;;;;;5140712;28;20337;-61
2022/12/12 11:45:19;;;;;;;7.28;4.30;;;1.50;99.90;;;;;;5154841;28;20046;-66
2022/12/12 11:47:58;;;;;;;6.47;3.78;;;1.70;99.90;;;;;;5150775;28;20050;-61
2022/12/12 11:50:32;;;;;;;8.93;5.13;;;1.60;99.90;;;;;;5174029;28;20048;-61
2022/12/12 11:53:10;;;;;;;9.20;4.00;;;1.60;99.90;;;;;;5141025;28;20068;-61
2022/12/12 11:56:13;;;;;;;10.73;4.15;;;0.60;99.90;;;;;;5174390;28;20450;-61
2022/12/12 11:58:55;;;;;;;7.22;3.95;;;0.20;99.90;;;;;;5152791;28;20041;-61
2022/12/12 12:02:09;;;;;;;6.28;3.45;;;0.00;99.90;;;;;;5141459;28;20046;-60
2022/12/12 12:05:05;;;;;;;5.25;4.18;;;0.40;99.90;;;;;;5161498;28;20062;-61
2022/12/12 12:07:59;;;;;;;7.32;4.18;;;1.50;99.90;;;;;;5156428;28;20032;-61
2022/12/12 12:10:48;;;;;;;6.30;4.22;;;1.60;99.90;;;;;;5169768;28;20331;-61
2022/12/12 12:13:38;;;;;;;6.32;4.00;;;1.80;99.90;;;;;;5147663;28;20215;-62
2022/12/12 12:16:24;;;;;;;5.55;4.13;;;2.00;99.90;;;;;;5172343;28;20038;-63
2022/12/12 12:19:46;;;;;;;6.82;3.58;;;1.50;99.90;;;;;;5173120;28;20060;-60
2022/12/12 12:22:39;;;;;;;6.80;4.15;;;1.80;99.90;;;;;;5156476;28;20040;-60
2022/12/12 12:25:30;;;;;;;6.03;3.53;;;1.80;99.90;;;;;;5163277;28;20048;-61
2022/12/12 12:28:33;;;;;;;6.72;3.80;;;1.40;99.90;;;;;;5167223;28;20335;-61
2022/12/12 12:31:45;;;;;;;4.38;3.17;;;1.20;99.90;;;;;;5173675;28;20026;-61
2022/12/12 12:34:16;;;;;;;6.38;4.05;;;0.70;99.90;;;;;;5155976;28;20054;-61
2022/12/12 12:37:40;;;;;;;7.15;4.82;;;0.50;99.90;;;;;;5172307;28;20056;-61
2022/12/12 12:40:54;;;;;;;8.13;4.23;;;0.70;99.90;;;;;;5176683;28;20037;-61
2022/12/12 12:43:58;;;;;;;5.55;4.00;;;0.60;99.90;;;;;;5139434;28;20026;-60
2022/12/12 12:47:14;;;;;;;6.43;4.15;;;0.20;99.90;;;;;;5172149;28;20046;-60
2022/12/12 12:50:20;;;;;;;6.43;3.88;;;-0.10;99.90;;;;;;5168825;28;20061;-60
2022/12/12 12:53:04;;;;;;;8.88;5.30;;;-0.30;99.90;;;;;;5148207;28;20042;-61
2022/12/12 12:55:54;;;;;;;6.85;4.32;;;-0.10;99.90;;;;;;5151358;28;20050;-60
2022/12/12 12:58:35;;;;;;;10.32;4.80;;;-0.10;99.90;;;;;;5136893;28;20218;-60
2022/12/12 13:01:31;;;;;;;11.30;5.17;;;-0.10;99.90;;;;;;5148461;28;20363;-62
2022/12/12 13:04:09;;;;;;;12.38;5.50;;;-0.20;99.90;;;;;;5131502;28;20050;-61
2022/12/12 13:06:47;;;;;;;9.27;3.92;;;-0.20;99.90;;;;;;5139951;28;20047;-61
2022/12/12 13:09:31;;;;;;;8.48;4.38;;;-0.30;99.90;;;;;;5149110;28;20036;-62
2022/12/12 13:12:32;;;;;;;;;;;-0.30;99.90;;;;;;5163494;28;20048;-62
2022/12/12 13:15:33;;;;;;;6.68;3.90;;;-0.30;99.90;;;;;;5156428;28;19928;-61
2022/12/12 13:18:14;;;;;;;6.53;4.33;;;-0.30;99.90;;;;;;5154538;28;20022;-63
2022/12/12 13:21:04;;;;;;;7.65;5.15;;;-0.40;99.90;;;;;;5154795;28;20552;-62
2022/12/12 13:24:07;;;;;;;5.78;4.68;;;-0.60;99.90;;;;;;5153173;28;20050;-62
2022/12/12 13:27:29;;;;;;;7.82;4.43;;;-0.70;99.90;;;;;;5155486;28;20054;-62
2022/12/12 13:30:29;;;;;;;18.95;9.20;;;-0.80;99.90;;;;;;5136623;28;20049;-61
2022/12/12 13:33:17;;;;;;;7.63;5.10;;;-0.50;99.90;;;;;;5150268;28;20038;-62
2022/12/12 13:35:56;;;;;;;8.73;5.05;;;-0.60;99.90;;;;;;5173017;28;20230;-62
2022/12/12 13:38:35;;;;;;;7.72;4.78;;;-0.70;99.90;;;;;;5154982;28;20034;-62
2022/12/12 13:41:11;;;;;;;7.32;4.63;;;-0.70;99.90;;;;;;5156199;28;20037;-60
2022/12/12 13:43:51;;;;;;;7.15;4.63;;;-0.80;99.90;;;;;;5167331;28;20033;-63
2022/12/12 13:46:23;;;;;;;8.95;6.00;;;-0.90;99.90;;;;;;5148876;28;20034;-60
2022/12/12 13:49:10;;;;;;;8.93;4.90;;;-0.80;99.90;;;;;;5170881;28;20025;-61
2022/12/12 13:51:54;;;;;;;11.63;5.78;;;-0.90;99.90;;;;;;5141696;28;20045;-60
2022/12/12 13:54:25;;;;;;;;;;;-0.90;99.90;;;;;;5132984;28;20069;-62
2022/12/12 13:57:00;;;;;;;6.70;4.28;;;-0.90;99.90;;;;;;5123902;28;20191;-60
2022/12/12 13:59:34;;;;;;;10.35;5.90;;;-1.00;99.90;;;;;;5155141;28;20080;-60
2022/12/12 14:02:29;;;;;;;7.45;5.38;;;-1.00;99.90;;;;;;5139274;28;20069;-60
2022/12/12 14:05:22;;;;;;;9.65;5.88;;;-0.90;99.90;;;;;;5144024;28;20058;-59
2022/12/12 14:08:06;;;;;;;8.13;5.78;;;-1.00;99.90;;;;;;5166499;28;20415;-61
2022/12/12 14:11:00;;;;;;;7.75;5.20;;;-1.10;99.90;;;;;;5143131;28;20262;-58
2022/12/12 14:13:44;;;;;;;7.57;4.87;;;-1.20;99.90;;;;;;5159577;28;20048;-59
2022/12/12 14:16:23;;;;;;;9.63;6.10;;;-1.30;99.90;;;;;;5175682;28;20064;-59
2022/12/12 14:19:07;;;;;;;12.48;4.93;;;-1.30;99.90;;;;;;5163560;28;20041;-58
2022/12/12 14:21:46;;;;;;;9.82;5.13;;;-1.30;99.90;;;;;;5162694;28;20030;-60
2022/12/12 14:24:33;;;;;;;6.73;4.73;;;-1.20;99.90;;;;;;5135004;28;20037;-58